• Join FlightAware (Why Join?)
  • Login
  • US Flag 
06:41AM EDT


 

Airport Tracker/Info


-or-


 

Live Flight TrackerFlight Track Log ✈ N662US ✈ 2013年 07月 20日 ✈ VTBS / BKK - RJAA / NRT

Flight Track Log - Related Links

Times and Time Zones

All times are in EDT time to prevent confusion due to time zone crossing. See the N662US flight status page for this flight to view local times or setup timezone preferences in your user account.

Time Position Orientation Groundspeed Altitude Reporting Facility
EDT Latitude Longitude Course Direction KTS MPH feet Rate Location/Type
07:04PM 13.7568 100.8433 51° Northeast  Level Estimated
07:05PM 13.8324 100.9394 51° Northeast  Level Estimated
07:06PM 13.9081 101.0356 51° Northeast  Level Estimated
07:07PM 13.9837 101.1319 51° Northeast  Level Estimated
07:08PM 14.0592 101.2281 51° Northeast  Level Estimated
07:09PM 14.1347 101.3245 51° Northeast  Level Estimated
07:10PM 14.2115 101.4226 51° Northeast  Level Estimated
07:11PM 14.2882 101.5208 51° Northeast  Level Estimated
07:12PM 14.3649 101.6191 51° Northeast  Level Estimated
07:13PM 14.4416 101.7174 51° Northeast  Level Estimated
07:14PM 14.5182 101.8158 51° Northeast  Level Estimated
07:15PM 14.5948 101.9142 51° Northeast  Level Estimated
07:16PM 14.6714 102.0128 51° Northeast  Level Estimated
07:17PM 14.7479 102.1114 51° Northeast  Level Estimated
07:18PM 14.8243 102.2100 51° Northeast  Level Estimated
07:19PM 14.9008 102.3087 51° Northeast  Level Estimated
07:20PM 14.9771 102.4075 51° Northeast  Level Estimated
07:21PM 15.0535 102.5064 51° Northeast  Level Estimated
07:22PM 15.1298 102.6053 51° Northeast  Level Estimated
07:23PM 15.2060 102.7044 51° Northeast  Level Estimated
07:24PM 15.2822 102.8035 51° Northeast  Level Estimated
07:25PM 15.3584 102.9026 51° Northeast  Level Estimated
07:26PM 15.4345 103.0018 51° Northeast  Level Estimated
07:27PM 15.5105 103.1012 52° Northeast  Level Estimated
07:28PM 15.5866 103.2005 52° Northeast  Level Estimated
07:29PM 15.6626 103.3000 52° Northeast  Level Estimated
07:30PM 15.7385 103.3995 52° Northeast  Level Estimated
07:31PM 15.8144 103.4991 52° Northeast  Level Estimated
07:32PM 15.8902 103.5988 52° Northeast  Level Estimated
07:33PM 15.9660 103.6985 52° Northeast  Level Estimated
07:34PM 16.0418 103.7983 52° Northeast  Level Estimated
07:35PM 16.1175 103.8982 52° Northeast  Level Estimated
07:36PM 16.1932 103.9982 52° Northeast  Level Estimated
07:37PM 16.2688 104.0983 52° Northeast  Level Estimated
07:38PM 16.3444 104.1984 52° Northeast  Level Estimated
07:39PM 16.4199 104.2986 52° Northeast  Level Estimated
07:40PM 16.4954 104.3989 52° Northeast  Level Estimated
07:41PM 16.5708 104.4993 52° Northeast  Level Estimated
07:42PM 16.6462 104.5997 52° Northeast  Level Estimated
07:43PM 16.7215 104.7002 52° Northeast  Level Estimated
07:44PM 16.7968 104.8008 52° Northeast  Level Estimated
07:45PM 16.8720 104.9015 52° Northeast  Level Estimated
07:46PM 16.9472 105.0023 52° Northeast  Level Estimated
07:47PM 17.0223 105.1031 52° Northeast  Level Estimated
07:48PM 17.0974 105.2040 52° Northeast  Level Estimated
07:49PM 17.1736 105.3065 52° Northeast  Level Estimated
07:50PM 17.2497 105.4091 52° Northeast  Level Estimated
07:51PM 17.3257 105.5118 52° Northeast  Level Estimated
07:52PM 17.4017 105.6145 52° Northeast  Level Estimated
07:53PM 17.4776 105.7174 52° Northeast  Level Estimated
07:54PM 17.5524 105.8188 52° Northeast  Level Estimated
07:55PM 17.6271 105.9203 52° Northeast  Level Estimated
07:56PM 17.7018 106.0219 52° Northeast  Level Estimated
07:57PM 17.7764 106.1236 52° Northeast  Level Estimated
07:58PM 17.8510 106.2253 52° Northeast  Level Estimated
07:59PM 17.9255 106.3272 52° Northeast  Level Estimated
08:00PM 18.0000 106.4291 52° Northeast  Level Estimated
08:01PM 18.0744 106.5311 52° Northeast  Level Estimated
08:02PM 18.1488 106.6332 53° Northeast  Level Estimated
08:03PM 18.2231 106.7354 53° Northeast  Level Estimated
08:04PM 18.2973 106.8377 53° Northeast  Level Estimated
08:05PM 18.3715 106.9401 53° Northeast  Level Estimated
08:06PM 18.4456 107.0425 53° Northeast  Level Estimated
08:07PM 18.5197 107.1451 53° Northeast  Level Estimated
08:08PM 18.5938 107.2477 53° Northeast  Level Estimated
08:09PM 18.6677 107.3504 53° Northeast  Level Estimated
08:10PM 18.7416 107.4532 53° Northeast  Level Estimated
08:11PM 18.8155 107.5561 53° Northeast  Level Estimated
08:12PM 18.8893 107.6591 53° Northeast  Level Estimated
08:13PM 18.9631 107.7622 53° Northeast  Level Estimated
08:14PM 19.0367 107.8654 53° Northeast  Level Estimated
08:15PM 19.1104 107.9686 53° Northeast  Level Estimated
08:16PM 19.1840 108.0720 53° Northeast  Level Estimated
08:17PM 19.2575 108.1754 53° Northeast  Level Estimated
08:18PM 19.3309 108.2790 53° Northeast  Level Estimated
08:19PM 19.4043 108.3826 53° Northeast  Level Estimated
08:20PM 19.4777 108.4863 53° Northeast  Level Estimated
08:21PM 19.5509 108.5902 53° Northeast  Level Estimated
08:22PM 19.6242 108.6941 53° Northeast  Level Estimated
08:23PM 19.6973 108.7981 53° Northeast  Level Estimated
08:24PM 19.7704 108.9022 53° Northeast  Level Estimated
08:25PM 19.8435 109.0064 53° Northeast  Level Estimated
08:26PM 19.9165 109.1107 53° Northeast  Level Estimated
08:27PM 19.9894 109.2151 53° Northeast  Level Estimated
08:28PM 20.0622 109.3196 53° Northeast  Level Estimated
08:29PM 20.1350 109.4242 53° Northeast  Level Estimated
08:30PM 20.2078 109.5288 53° Northeast  Level Estimated
08:31PM 20.2805 109.6336 54° Northeast  Level Estimated
08:32PM 20.3531 109.7385 54° Northeast  Level Estimated
08:33PM 20.4256 109.8435 54° Northeast  Level Estimated
08:34PM 20.4981 109.9486 54° Northeast  Level Estimated
08:35PM 20.5705 110.0537 54° Northeast  Level Estimated
08:36PM 20.6429 110.1590 54° Northeast  Level Estimated
08:37PM 20.7152 110.2644 54° Northeast  Level Estimated
08:38PM 20.7874 110.3699 54° Northeast  Level Estimated
08:39PM 20.8596 110.4755 54° Northeast  Level Estimated
08:40PM 20.9317 110.5811 54° Northeast  Level Estimated
08:41PM 21.0037 110.6869 54° Northeast  Level Estimated
08:42PM 21.0757 110.7928 54° Northeast  Level Estimated
08:43PM 21.1476 110.8988 54° Northeast  Level Estimated
08:44PM 21.2194 111.0049 54° Northeast  Level Estimated
08:45PM 21.2912 111.1111 54° Northeast  Level Estimated
08:46PM 21.3629 111.2174 54° Northeast  Level Estimated
08:47PM 21.4346 111.3238 54° Northeast  Level Estimated
08:48PM 21.5061 111.4303 54° Northeast  Level Estimated
08:49PM 21.5777 111.5369 54° Northeast  Level Estimated
08:50PM 21.6491 111.6436 54° Northeast  Level Estimated
08:51PM 21.7205 111.7504 54° Northeast  Level Estimated
08:52PM 21.7918 111.8574 54° Northeast  Level Estimated
08:53PM 21.8630 111.9644 54° Northeast  Level Estimated
08:54PM 21.9342 112.0715 54° Northeast  Level Estimated
08:55PM 22.0053 112.1788 54° Northeast  Level Estimated
08:56PM 22.0763 112.2861 54° Northeast  Level Estimated
08:57PM 22.1472 112.3936 55° Northeast  Level Estimated
08:58PM 22.2181 112.5012 55° Northeast  Level Estimated
08:59PM 22.2889 112.6088 55° Northeast  Level Estimated
09:00PM 22.3597 112.7166 55° Northeast  Level Estimated
09:01PM 22.4312 112.8258 55° Northeast  Level Estimated
09:02PM 22.5026 112.9351 55° Northeast  Level Estimated
09:03PM 22.5740 113.0445 55° Northeast  Level Estimated
09:04PM 22.6453 113.1540 55° Northeast  Level Estimated
09:05PM 22.7165 113.2636 55° Northeast  Level Estimated
09:06PM 22.7876 113.3734 55° Northeast  Level Estimated
09:07PM 22.8587 113.4833 55° Northeast  Level Estimated
09:08PM 22.9296 113.5932 55° Northeast  Level Estimated
09:09PM 23.0006 113.7033 55° Northeast  Level Estimated
09:10PM 23.0714 113.8135 55° Northeast  Level Estimated
09:11PM 23.1422 113.9238 55° Northeast  Level Estimated
09:12PM 23.2128 114.0343 55° Northeast  Level Estimated
09:13PM 23.2834 114.1448 55° Northeast  Level Estimated
09:14PM 23.3540 114.2555 55° Northeast  Level Estimated
09:15PM 23.4244 114.3663 55° Northeast  Level Estimated
09:16PM 23.4948 114.4772 55° Northeast  Level Estimated
09:17PM 23.5651 114.5882 55° Northeast  Level Estimated
09:18PM 23.6353 114.6993 55° Northeast  Level Estimated
09:19PM 23.7054 114.8106 55° Northeast  Level Estimated
09:20PM 23.7755 114.9220 55° Northeast  Level Estimated
09:21PM 23.8454 115.0335 56° Northeast  Level Estimated
09:22PM 23.9153 115.1451 56° Northeast  Level Estimated
09:23PM 23.9851 115.2568 56° Northeast  Level Estimated
09:24PM 24.0549 115.3687 56° Northeast  Level Estimated
09:25PM 24.1245 115.4807 56° Northeast  Level Estimated
09:26PM 24.1941 115.5928 56° Northeast  Level Estimated
09:27PM 24.2636 115.7050 56° Northeast  Level Estimated
09:28PM 24.3330 115.8174 56° Northeast  Level Estimated
09:29PM 24.4023 115.9298 56° Northeast  Level Estimated
09:30PM 24.4715 116.0424 56° Northeast  Level Estimated
09:31PM 24.5407 116.1552 56° Northeast  Level Estimated
09:32PM 24.6098 116.2680 56° Northeast  Level Estimated
09:33PM 24.6787 116.3810 56° Northeast  Level Estimated
09:34PM 24.7476 116.4941 56° Northeast  Level Estimated
09:35PM 24.8165 116.6073 56° Northeast  Level Estimated
09:36PM 24.8852 116.7206 56° Northeast  Level Estimated
09:37PM 24.9538 116.8341 56° Northeast  Level Estimated
09:38PM 25.0224 116.9477 56° Northeast  Level Estimated
09:39PM 25.0909 117.0614 56° Northeast  Level Estimated
09:40PM 25.1593 117.1753 56° Northeast  Level Estimated
09:41PM 25.2276 117.2893 56° Northeast  Level Estimated
09:42PM 25.2958 117.4034 57° Northeast  Level Estimated
09:43PM 25.3639 117.5176 57° Northeast  Level Estimated
09:44PM 25.4319 117.6320 57° Northeast  Level Estimated
09:45PM 25.4999 117.7465 57° Northeast  Level Estimated
09:46PM 25.5677 117.8611 57° Northeast  Level Estimated
09:47PM 25.6355 117.9759 57° Northeast  Level Estimated
09:48PM 25.7032 118.0908 57° Northeast  Level Estimated
09:49PM 25.7708 118.2058 57° Northeast  Level Estimated
09:50PM 25.8383 118.3210 57° Northeast  Level Estimated
09:51PM 25.9057 118.4362 57° Northeast  Level Estimated
09:52PM 25.9730 118.5516 57° Northeast  Level Estimated
09:53PM 26.0402 118.6672 57° Northeast  Level Estimated
09:54PM 26.1074 118.7829 57° Northeast  Level Estimated
09:55PM 26.1744 118.8987 57° Northeast  Level Estimated
09:56PM 26.2414 119.0146 57° Northeast  Level Estimated
09:57PM 26.3082 119.1307 57° Northeast  Level Estimated
09:58PM 26.3750 119.2469 57° Northeast  Level Estimated
09:59PM 26.4416 119.3632 57° Northeast  Level Estimated
10:00PM 26.5082 119.4797 57° Northeast  Level Estimated
10:01PM 26.5747 119.5963 57° Northeast  Level Estimated
10:02PM 26.6411 119.7131 58° Northeast  Level Estimated
10:03PM 26.7073 119.8299 58° Northeast  Level Estimated
10:04PM 26.7735 119.9470 58° Northeast  Level Estimated
10:05PM 26.8396 120.0641 58° Northeast  Level Estimated
10:06PM 26.9056 120.1814 58° Northeast  Level Estimated
10:07PM 26.9715 120.2988 58° Northeast  Level Estimated
10:08PM 27.0373 120.4164 58° Northeast  Level Estimated
10:09PM 27.1031 120.5341 58° Northeast  Level Estimated
10:10PM 27.1687 120.6519 58° Northeast  Level Estimated
10:11PM 27.2342 120.7699 58° Northeast  Level Estimated
10:12PM 27.2996 120.8880 58° Northeast  Level Estimated
10:13PM 27.3649 121.0063 58° Northeast  Level Estimated
10:14PM 27.4301 121.1247 58° Northeast  Level Estimated
10:15PM 27.4950 121.2429 58° Northeast  Level Estimated
10:16PM 27.5598 121.3612 58° Northeast  Level Estimated
10:17PM 27.6246 121.4797 58° Northeast  Level Estimated
10:18PM 27.6892 121.5983 58° Northeast  Level Estimated
10:19PM 27.7537 121.7171 58° Northeast  Level Estimated
10:20PM 27.8181 121.8360 58° Northeast  Level Estimated
10:21PM 27.8824 121.9550 59° Northeast  Level Estimated
10:22PM 27.9466 122.0742 59° Northeast  Level Estimated
10:23PM 28.0107 122.1935 59° Northeast  Level Estimated
10:24PM 28.0748 122.3129 59° Northeast  Level Estimated
10:25PM 28.1388 122.4329 59° Northeast  Level Estimated
10:26PM 28.2028 122.5529 59° Northeast  Level Estimated
10:27PM 28.2667 122.6732 59° Northeast  Level Estimated
10:28PM 28.3305 122.7936 59° Northeast  Level Estimated
10:29PM 28.3942 122.9141 59° Northeast  Level Estimated
10:30PM 28.4577 123.0348 59° Northeast  Level Estimated
10:31PM 28.5212 123.1556 59° Northeast  Level Estimated
10:32PM 28.5845 123.2766 59° Northeast  Level Estimated
10:33PM 28.6478 123.3977 59° Northeast  Level Estimated
10:34PM 28.7109 123.5189 59° Northeast  Level Estimated
10:35PM 28.7739 123.6403 59° Northeast  Level Estimated
10:36PM 28.8369 123.7619 59° Northeast  Level Estimated
10:37PM 28.8997 123.8836 59° Northeast  Level Estimated
10:38PM 28.9624 124.0054 60° Northeast  Level Estimated
10:39PM 29.0250 124.1274 60° Northeast  Level Estimated
10:40PM 29.0874 124.2495 60° Northeast  Level Estimated
10:41PM 29.1498 124.3718 60° Northeast  Level Estimated
10:42PM 29.2121 124.4942 60° Northeast  Level Estimated
10:43PM 29.2742 124.6168 60° Northeast  Level Estimated
10:44PM 29.3363 124.7395 60° Northeast  Level Estimated
10:45PM 29.3982 124.8624 60° Northeast  Level Estimated
10:46PM 29.4600 124.9855 60° Northeast  Level Estimated
10:47PM 29.5217 125.1086 60° Northeast  Level Estimated
10:48PM 29.5833 125.2320 60° Northeast  Level Estimated
10:49PM 29.6447 125.3554 60° Northeast  Level Estimated
10:50PM 29.7061 125.4791 60° Northeast  Level Estimated
10:51PM 29.7673 125.6029 60° Northeast  Level Estimated
10:52PM 29.8284 125.7268 60° Northeast  Level Estimated
10:53PM 29.8895 125.8509 60° Northeast  Level Estimated
10:54PM 29.9503 125.9751 60° Northeast  Level Estimated
10:55PM 30.0111 126.0995 61° Northeast  Level Estimated
10:56PM 30.0718 126.2240 61° Northeast  Level Estimated
10:57PM 30.1323 126.3487 61° Northeast  Level Estimated
10:58PM 30.1927 126.4736 61° Northeast  Level Estimated
10:59PM 30.2530 126.5986 61° Northeast  Level Estimated
11:00PM 30.3132 126.7237 61° Northeast  Level Estimated
11:01PM 30.3733 126.8490 61° Northeast  Level Estimated
11:02PM 30.4332 126.9745 61° Northeast  Level Estimated
11:03PM 30.4930 127.1001 61° Northeast  Level Estimated
11:04PM 30.5527 127.2259 61° Northeast  Level Estimated
11:05PM 30.6123 127.3518 61° Northeast  Level Estimated
11:06PM 30.6718 127.4779 61° Northeast  Level Estimated
11:07PM 30.7311 127.6041 61° Northeast  Level Estimated
11:08PM 30.7903 127.7305 61° Northeast  Level Estimated
11:09PM 30.8494 127.8571 61° Northeast  Level Estimated
11:10PM 30.9084 127.9838 61° Northeast  Level Estimated
11:11PM 30.9672 128.1106 62° Northeast  Level Estimated
11:12PM 31.0260 128.2376 62° Northeast  Level Estimated
11:13PM 31.0846 128.3648 62° Northeast  Level Estimated
11:14PM 31.1430 128.4921 62° Northeast  Level Estimated
11:15PM 31.2014 128.6196 62° Northeast  Level Estimated
11:16PM 31.2596 128.7473 62° Northeast  Level Estimated
11:17PM 31.3177 128.8750 62° Northeast  Level Estimated
11:18PM 31.3757 129.0030 62° Northeast  Level Estimated
11:19PM 31.4335 129.1311 62° Northeast  Level Estimated
11:20PM 31.4912 129.2594 62° Northeast  Level Estimated
11:21PM 31.5488 129.3878 62° Northeast  Level Estimated
11:22PM 31.6063 129.5164 62° Northeast  Level Estimated
11:23PM 31.6634 129.6448 62° Northeast  Level Estimated
11:24PM 31.7205 129.7733 62° Northeast  Level Estimated
11:25PM 31.7774 129.9020 62° Northeast  Level Estimated
11:26PM 31.8341 130.0308 63° Northeast  Level Estimated
11:27PM 31.8908 130.1598 63° Northeast  Level Estimated
11:28PM 31.9473 130.2890 63° Northeast  Level Estimated
11:29PM 32.0037 130.4183 63° Northeast  Level Estimated
11:30PM 32.0599 130.5478 63° Northeast  Level Estimated
11:31PM 32.1160 130.6774 63° Northeast  Level Estimated
11:32PM 32.1720 130.8072 63° Northeast  Level Estimated
11:33PM 32.2279 130.9372 63° Northeast  Level Estimated
11:34PM 32.2836 131.0673 63° Northeast  Level Estimated
11:35PM 32.3392 131.1975 63° Northeast  Level Estimated
11:36PM 32.3946 131.3280 63° Northeast  Level Estimated
11:37PM 32.4500 131.4586 63° Northeast  Level Estimated
11:38PM 32.5051 131.5893 63° Northeast  Level Estimated
11:39PM 32.5602 131.7202 63° Northeast  Level Estimated
11:40PM 32.6151 131.8513 64° Northeast  Level Estimated
11:41PM 32.6699 131.9825 64° Northeast  Level Estimated
11:42PM 32.7245 132.1139 64° Northeast  Level Estimated
11:43PM 32.7790 132.2455 64° Northeast  Level Estimated
11:44PM 32.8334 132.3772 64° Northeast  Level Estimated
11:45PM 32.8876 132.5091 64° Northeast  Level Estimated
11:46PM 32.9417 132.6411 64° Northeast  Level Estimated
11:47PM 32.9958 132.7737 64° Northeast  Level Estimated
11:48PM 33.0498 132.9065 64° Northeast  Level Estimated
11:49PM 33.1036 133.0394 64° Northeast  Level Estimated
11:50PM 33.1573 133.1725 64° Northeast  Level Estimated
11:51PM 33.2108 133.3057 64° Northeast  Level Estimated
11:52PM 33.2643 133.4391 64° Northeast  Level Estimated
11:53PM 33.3175 133.5727 64° Northeast  Level Estimated
11:54PM 33.3706 133.7064 65° Northeast  Level Estimated
11:55PM 33.4236 133.8403 65° Northeast  Level Estimated
11:56PM 33.4764 133.9744 65° Northeast  Level Estimated
11:57PM 33.5291 134.1086 65° Northeast  Level Estimated
11:58PM 33.5816 134.2430 65° Northeast  Level Estimated
11:59PM 33.6340 134.3775 65° Northeast  Level Estimated
12:00AM 33.6863 134.5123 65° Northeast  Level Estimated
12:01AM 33.7384 134.6471 65° Northeast  Level Estimated
12:02AM 33.7904 134.7822 65° Northeast  Level Estimated
12:03AM 33.8422 134.9174 65° Northeast  Level Estimated
12:04AM 33.8938 135.0527 65° Northeast  Level Estimated
12:05AM 33.9453 135.1883 65° Northeast  Level Estimated
12:06AM 33.9967 135.3240 65° Northeast  Level Estimated
12:07AM 34.0479 135.4598 66° East  Level Estimated
12:08AM 34.0990 135.5959 66° East  Level Estimated
12:09AM 34.1499 135.7321 66° East  Level Estimated
12:10AM 34.2006 135.8684 66° East  Level Estimated
12:11AM 34.2512 136.0049 66° East  Level Estimated
12:12AM 34.3017 136.1416 66° East  Level Estimated
12:13AM 34.3520 136.2784 66° East  Level Estimated
12:14AM 34.4022 136.4155 66° East  Level Estimated
12:15AM 34.4522 136.5526 66° East  Level Estimated
12:16AM 34.5020 136.6900 66° East  Level Estimated
12:17AM 34.5517 136.8275 66° East  Level Estimated
12:18AM 34.6013 136.9651 66° East  Level Estimated
12:19AM 34.6507 137.1030 66° East  Level Estimated
12:20AM 34.6999 137.2409 67° East  Level Estimated
12:21AM 34.7490 137.3791 67° East  Level Estimated
12:22AM 34.7979 137.5174 67° East  Level Estimated
12:23AM 34.8466 137.6559 67° East  Level Estimated
12:24AM 34.8953 137.7946 67° East  Level Estimated
12:25AM 34.9437 137.9334 67° East  Level Estimated
12:26AM 34.9920 138.0723 67° East  Level Estimated
12:27AM 35.0401 138.2115 67° East  Level Estimated
12:28AM 35.0881 138.3508 67° East  Level Estimated
12:29AM 35.1359 138.4902 67° East  Level Estimated
12:30AM 35.1836 138.6299 67° East  Level Estimated
12:31AM 35.2311 138.7697 67° East  Level Estimated
12:32AM 35.2784 138.9096 67° East  Level Estimated
12:33AM 35.3256 139.0497 68° East  Level Estimated
12:34AM 35.3726 139.1900 68° East  Level Estimated
12:35AM 35.4194 139.3305 68° East  Level Estimated
12:36AM 35.4661 139.4711 68° East  Level Estimated
12:37AM 35.5126 139.6119 68° East  Level Estimated
12:38AM 35.5590 139.7528 68° East  Level Estimated
12:39AM 35.6052 139.8939 68° East  Level Estimated
12:40AM 35.6512 140.0352 68° East  Level Estimated
12:41AM 35.6971 140.1766 68° East  Level Estimated
12:42AM 35.7428 140.3182 68° East  Level Estimated
12:43AM 35.7647 140.3864 68° East  Level Estimated
12:44AM 35.7647 140.3864 338° Northwest  Level Estimated
12:45AM 35.7647 140.3864 338° Northwest  Level Estimated
12:46AM 35.7647 140.3864 338° Northwest  Level Estimated
12:47AM 35.7647 140.3864 338° Northwest  Level Estimated
12:48AM 35.7647 140.3864 338° Northwest  Level Estimated
12:49AM 35.7647 140.3864 338° Northwest  Level Estimated